Svartfoss — V2PR3 — position and weather

sailwx.info

Track history (hours):
 
Tides and Currents Weather Stations Pressure Air Temp Water Temp Dewpoint Dewpoint Depression Visibility Wind Speed Wind Dir Waves Ship Positions

Svartfoss

Last reported at 2017-Aug-23 19:30 UTC. Time now 2017-Aug-23 19:35 UTC.
Position N 68°58' E 033°03'.

Length 80 m; draft 5.3 m.

Type: Cargo ship. MMSI: 304882000.

Date/timePositionNaut miles runAvg speedWind from/ knotsBaromVisibWave heightAir tempDewpointWater temp
2017-Aug-23 19:30N 68°58' E 033°03'0 0.0
2017-Aug-23 18:59N 68°58' E 033°03'0 0.0
2017-Aug-23 18:29N 68°58' E 033°03'0 0.0
2017-Aug-23 17:58N 68°58' E 033°03'0 0.0
2017-Aug-23 17:28N 68°58' E 033°03'0 0.0
2017-Aug-23 16:58N 68°58' E 033°03'0 0.0
2017-Aug-23 16:28N 68°58' E 033°03'0 0.0
2017-Aug-23 15:58N 68°58' E 033°03'0 0.0
2017-Aug-23 15:28N 68°58' E 033°03'0 0.0
2017-Aug-23 10:46N 68°58' E 033°03'0 0.0
2017-Aug-23 10:24N 68°58' E 033°03'1 2.0
2017-Aug-23 10:00N 68°59' E 033°02'3 6.3
2017-Aug-23 09:30N 69°02' E 033°03'8011.5
2017-Aug-23 02:35N 70°18' E 031°53'115.5
2017-Aug-23 02:30N 70°19' E 031°50'815.5
2017-Aug-23 02:00N 70°23' E 031°31'815.7
2017-Aug-23 01:30N 70°28' E 031°12'816.0
2017-Aug-23 01:00N 70°33' E 030°53'815.5
2017-Aug-23 00:30N 70°37' E 030°34'815.5
2017-Aug-23 00:00N 70°42' E 030°15'713.9
2017-Aug-22 23:30N 70°42' E 029°54'611.5
2017-Aug-22 23:01N 70°38' E 029°43'0 0.0
2017-Aug-22 22:30N 70°38' E 029°43'0 0.0
2017-Aug-22 22:00N 70°38' E 029°43'0 0.0
2017-Aug-22 21:30N 70°38' E 029°43'0 0.0
2017-Aug-22 21:00N 70°38' E 029°43'0 0.0
2017-Aug-22 20:31N 70°38' E 029°43'0 0.0
2017-Aug-22 20:00N 70°38' E 029°43'0 0.0
2017-Aug-22 19:30N 70°38' E 029°43'0 0.3
2017-Aug-22 19:00N 70°38' E 029°44'712.8
2017-Aug-22 18:30N 70°44' E 029°50'815.6
2017-Aug-22 18:00N 70°49' E 029°32'816.0
2017-Aug-22 17:30N 70°54' E 029°12'815.6
2017-Aug-22 17:00N 70°58' E 028°53'815.8
2017-Aug-22 16:30N 71°03' E 028°33'816.6
2017-Aug-22 16:00N 71°08' E 028°12'816.5
2017-Aug-22 15:30N 71°08' E 027°47'816.8
2017-Aug-22 15:00N 71°07' E 027°21'816.0
2017-Aug-22 14:30N 71°04' E 026°58'815.4
2017-Aug-22 14:00N 71°01' E 026°36'815.4
2017-Aug-22 13:30N 70°59' E 026°13'510.1
2017-Aug-22 13:00N 70°60' E 025°58'0 0.1
2017-Aug-22 12:29N 70°60' E 025°58'2 3.9
2017-Aug-22 12:00N 70°58' E 025°56'714.7
2017-Aug-22 11:30N 70°56' E 025°34'816.1
2017-Aug-22 11:00N 70°59' E 025°12'815.3
2017-Aug-22 10:30N 71°00' E 024°49'714.0
2017-Aug-22 10:00N 71°00' E 024°27'714.9
2017-Aug-22 09:30N 70°55' E 024°11'714.9
2017-Aug-22 09:00N 70°50' E 023°54'714.5
2017-Aug-22 08:30N 70°45' E 023°38'613.4
2017-Aug-22 08:01N 70°38' E 023°34'2 3.3
2017-Aug-22 07:30N 70°38' E 023°38'0 0.0
2017-Aug-22 07:01N 70°38' E 023°38'0 0.0
2017-Aug-22 06:30N 70°38' E 023°38'0 0.0
2017-Aug-22 06:00N 70°38' E 023°38'1 1.6
2017-Aug-22 05:30N 70°37' E 023°37'2 3.0
2017-Aug-22 05:00N 70°38' E 023°40'0 0.0
2017-Aug-22 04:30N 70°38' E 023°40'0 0.0
2017-Aug-22 04:00N 70°38' E 023°40'4 7.5
2017-Aug-22 03:30N 70°38' E 023°29'714.5
2017-Aug-22 03:00N 70°34' E 023°10'815.5
2017-Aug-22 02:30N 70°29' E 022°52'815.0
2017-Aug-22 02:00N 70°25' E 022°34'714.6
2017-Aug-22 01:30N 70°20' E 022°18'611.1
2017-Aug-22 01:00N 70°14' E 022°21'3 6.8
2017-Aug-22 00:30N 70°17' E 022°17'815.2
2017-Aug-22 00:00N 70°22' E 021°58'713.3
2017-Aug-21 23:30N 70°23' E 021°38'815.6
2017-Aug-21 23:01N 70°17' E 021°22'714.8
2017-Aug-21 22:31N 70°12' E 021°07'714.7
2017-Aug-21 22:01N 70°05' E 020°57'714.2
2017-Aug-21 21:31N 70°02' E 020°40'714.9
2017-Aug-21 21:00N 69°59' E 020°19'714.9
2017-Aug-21 20:30N 69°55' E 020°01'815.3
2017-Aug-21 20:00N 69°50' E 019°43'815.0
2017-Aug-21 19:30N 69°48' E 019°23'714.9
2017-Aug-21 19:01N 69°45' E 019°04'610.9
2017-Aug-21 18:30N 69°39' E 018°58'0 0.0
2017-Aug-21 18:00N 69°39' E 018°58'0 0.0
2017-Aug-21 17:30N 69°39' E 018°58'0 0.0
2017-Aug-21 17:00N 69°39' E 018°58'0 0.0
2017-Aug-21 16:30N 69°39' E 018°58'0 0.7
2017-Aug-21 16:00N 69°39' E 018°59'2 3.6
2017-Aug-21 15:30N 69°38' E 018°57'4 8.6
2017-Aug-21 15:00N 69°34' E 018°48'713.2
2017-Aug-21 14:30N 69°32' E 018°31'714.8
2017-Aug-21 14:01N 69°29' E 018°12'713.8
2017-Aug-21 13:30N 69°22' E 018°06'713.9
2017-Aug-21 13:00N 69°16' E 017°58'612.1
2017-Aug-21 12:30N 69°10' E 017°56'714.7
2017-Aug-21 12:00N 69°07' E 017°37'714.4
2017-Aug-21 11:30N 69°03' E 017°20'714.0
2017-Aug-21 11:00N 68°58' E 017°05'714.5
2017-Aug-21 10:30N 68°55' E 016°47'713.4
2017-Aug-21 09:59N 68°52' E 016°29'714.5
2017-Aug-21 09:30N 68°57' E 016°14'714.8
2017-Aug-21 09:01N 68°59' E 015°55'611.9
2017-Aug-21 08:30N 68°58' E 015°38'4 8.2
2017-Aug-21 07:59N 68°54' E 015°34'714.8
2017-Aug-21 07:30N 68°47' E 015°26'510.7
2017-Aug-21 07:00N 68°42' E 015°25'0 0.0
2017-Aug-21 06:30N 68°42' E 015°25'0 0.0
2017-Aug-21 06:00N 68°42' E 015°25'0 0.3
2017-Aug-21 05:30N 68°42' E 015°25'713.1
2017-Aug-21 05:00N 68°36' E 015°16'713.4
2017-Aug-21 04:30N 68°30' E 015°11'612.1
2017-Aug-21 04:00N 68°24' E 015°06'714.1
2017-Aug-21 03:30N 68°18' E 014°58'714.8
2017-Aug-21 03:00N 68°11' E 014°52'715.0
2017-Aug-21 02:30N 68°04' E 014°43'714.9
2017-Aug-21 02:00N 67°57' E 014°35'714.6
2017-Aug-21 01:30N 67°51' E 014°26'714.2
2017-Aug-21 01:00N 67°44' E 014°19'714.0
2017-Aug-21 00:30N 67°37' E 014°18'714.6
2017-Aug-21 00:00N 67°30' E 014°22'713.8
2017-Aug-20 23:30N 67°23' E 014°26'714.4
2017-Aug-20 23:00N 67°17' E 014°16'714.6
2017-Aug-20 22:30N 67°11' E 014°05'714.7
2017-Aug-20 22:00N 67°05' E 013°56'814.7
2017-Aug-20 21:30N 67°00' E 013°40'612.8
2017-Aug-20 21:00N 66°56' E 013°29'713.9
2017-Aug-20 20:29N 66°50' E 013°17'714.4
2017-Aug-20 20:00N 66°44' E 013°12'714.4
2017-Aug-20 19:30N 66°37' E 013°05'612.5
2017-Aug-20 19:00N 66°32' E 012°58'714.5
2017-Aug-20 18:30N 66°24' E 012°58'714.3
2017-Aug-20 18:00N 66°17' E 012°56'714.5
2017-Aug-20 17:30N 66°10' E 012°50'714.5
2017-Aug-20 17:00N 66°04' E 012°40'714.9
2017-Aug-20 16:30N 65°59' E 012°29'714.0
2017-Aug-20 16:00N 65°52' E 012°23'714.0
2017-Aug-20 15:30N 65°45' E 012°18'814.6
2017-Aug-20 14:56N 65°37' E 012°12'715.0
2017-Aug-20 14:30N 65°32' E 012°03'714.2
2017-Aug-20 13:59N 65°25' E 011°57'612.2
2017-Aug-20 13:30N 65°20' E 012°01'714.6
2017-Aug-20 13:00N 65°13' E 011°54'714.8
2017-Aug-20 12:30N 65°06' E 011°48'714.6
2017-Aug-20 12:00N 65°00' E 011°38'715.0
2017-Aug-20 11:30N 64°55' E 011°24'611.3
2017-Aug-20 11:00N 64°51' E 011°14'0 0.3
2017-Aug-20 10:31N 64°52' E 011°14'0 0.0
2017-Aug-20 10:01N 64°52' E 011°14'0 0.0
2017-Aug-20 09:31N 64°52' E 011°14'0 0.0
2017-Aug-20 09:00N 64°52' E 011°14'0 0.0
2017-Aug-20 08:31N 64°52' E 011°14'0 0.0
2017-Aug-20 08:01N 64°52' E 011°14'0 0.0
2017-Aug-20 07:31N 64°52' E 011°14'0 0.0
2017-Aug-20 07:01N 64°52' E 011°14'0 0.0
2017-Aug-20 06:31N 64°52' E 011°14'0 0.0
2017-Aug-20 06:01N 64°52' E 011°14'0 0.0
2017-Aug-20 05:31N 64°52' E 011°14'0 0.0
2017-Aug-20 05:01N 64°52' E 011°14'0 0.0
2017-Aug-20 04:31N 64°52' E 011°14'0 0.0
2017-Aug-20 04:00N 64°52' E 011°14'0 0.0
2017-Aug-20 03:30N 64°52' E 011°14'0 0.0
2017-Aug-20 03:00N 64°52' E 011°14'0 0.0
2017-Aug-20 02:31N 64°52' E 011°14'0 0.0
2017-Aug-20 02:00N 64°52' E 011°14'0 0.0
2017-Aug-20 01:31N 64°52' E 011°14'0 0.0
2017-Aug-20 01:01N 64°52' E 011°14'0 0.0
2017-Aug-20 00:31N 64°52' E 011°14'0 0.0
2017-Aug-20 00:01N 64°52' E 011°14'0 0.0
2017-Aug-19 23:30N 64°52' E 011°14'0 0.0
2017-Aug-19 23:01N 64°52' E 011°14'0 0.0
2017-Aug-19 22:30N 64°52' E 011°14'0 0.0
2017-Aug-19 22:00N 64°52' E 011°14'0 0.0
2017-Aug-19 21:31N 64°52' E 011°14'0 0.0
2017-Aug-19 21:01N 64°52' E 011°14'0 0.0
2017-Aug-19 20:31N 64°52' E 011°14'611.1
2017-Aug-19 20:00N 64°48' E 011°06'815.0
2017-Aug-19 19:30N 64°42' E 010°53'815.1
2017-Aug-19 19:00N 64°36' E 010°41'815.5
2017-Aug-19 18:30N 64°30' E 010°30'714.8
2017-Aug-19 18:00N 64°23' E 010°25'714.7
2017-Aug-19 17:30N 64°16' E 010°20'714.4
2017-Aug-19 17:00N 64°11' E 010°09'814.9
2017-Aug-19 16:30N 64°05' E 009°57'714.1
2017-Aug-19 16:00N 63°60' E 009°47'714.2
2017-Aug-19 15:29N 63°53' E 009°44'5 9.9
2017-Aug-19 15:00N 63°49' E 009°38'0 0.3
2017-Aug-19 14:00N 63°49' E 009°38'0 0.0
2017-Aug-19 13:30N 63°49' E 009°38'0 0.0
2017-Aug-19 13:01N 63°49' E 009°38'1 2.1
2017-Aug-19 12:30N 63°48' E 009°36'714.8
2017-Aug-19 12:00N 63°42' E 009°30'815.1
2017-Aug-19 11:30N 63°35' E 009°24'815.9
2017-Aug-19 11:00N 63°31' E 009°08'815.4
2017-Aug-19 10:30N 63°27' E 008°52'815.6
2017-Aug-19 10:00N 63°25' E 008°36'815.4
2017-Aug-19 09:30N 63°21' E 008°21'816.0
2017-Aug-19 09:00N 63°16' E 008°07'815.7
2017-Aug-19 08:31N 63°12' E 007°52'714.7
2017-Aug-19 08:00N 63°07' E 007°40'3 5.5
2017-Aug-19 07:30N 63°06' E 007°46'0 0.0
2017-Aug-19 07:00N 63°06' E 007°46'0 0.0
2017-Aug-19 06:30N 63°06' E 007°46'0 0.0
2017-Aug-19 06:00N 63°06' E 007°46'3 5.3
2017-Aug-19 05:30N 63°07' E 007°41'613.0
2017-Aug-19 05:00N 63°05' E 007°27'713.8
2017-Aug-19 04:30N 63°02' E 007°13'713.7
2017-Aug-19 04:00N 62°60' E 006°59'713.3
2017-Aug-19 03:30N 62°55' E 006°48'713.6
2017-Aug-19 03:00N 62°50' E 006°39'713.5
2017-Aug-19 02:30N 62°44' E 006°31'713.6
2017-Aug-19 02:00N 62°38' E 006°23'713.4
2017-Aug-19 01:30N 62°34' E 006°12'510.0
2017-Aug-19 01:00N 62°29' E 006°12'0 0.4
2017-Aug-19 00:30N 62°29' E 006°12'0 0.0
2017-Aug-19 00:00N 62°29' E 006°12'0 0.0
2017-Aug-18 23:30N 62°29' E 006°12'0 0.0
2017-Aug-18 23:00N 62°29' E 006°12'0 0.0
2017-Aug-18 22:30N 62°29' E 006°12'0 0.0
2017-Aug-18 22:00N 62°29' E 006°12'0 0.0
2017-Aug-18 21:30N 62°29' E 006°12'0 0.0
2017-Aug-18 21:00N 62°29' E 006°12'0 0.0
2017-Aug-18 20:30N 62°29' E 006°12'0 0.0
2017-Aug-18 20:00N 62°29' E 006°12'0 0.0
2017-Aug-18 19:29N 62°29' E 006°12'0 0.0
2017-Aug-18 19:00N 62°29' E 006°12'0 0.0
2017-Aug-18 18:30N 62°29' E 006°12'0 0.0
2017-Aug-18 18:00N 62°29' E 006°12'0 0.0
2017-Aug-18 17:30N 62°29' E 006°12'0 0.0
2017-Aug-18 17:00N 62°29' E 006°12'0 0.0
2017-Aug-18 16:30N 62°29' E 006°12'0 0.0
2017-Aug-18 16:00N 62°29' E 006°12'0 0.2
2017-Aug-18 15:30N 62°29' E 006°11'3 6.9
2017-Aug-18 15:00N 62°27' E 006°05'2 3.9
2017-Aug-18 14:30N 62°28' E 006°08'0 0.0
2017-Aug-18 13:30N 62°28' E 006°08'0 0.0
2017-Aug-18 13:00N 62°28' E 006°08'0 0.0
2017-Aug-18 12:29N 62°28' E 006°08'0 0.8
2017-Aug-18 11:59N 62°28' E 006°09'511.4
2017-Aug-18 11:30N 62°26' E 005°58'714.1
2017-Aug-18 11:00N 62°22' E 005°46'612.5
2017-Aug-18 10:30N 62°19' E 005°34'714.9
2017-Aug-18 10:00N 62°16' E 005°19'715.0
2017-Aug-18 09:30N 62°12' E 005°06'714.3
2017-Aug-18 09:00N 62°05' E 005°07'612.0
2017-Aug-18 08:30N 61°59' E 005°08'0 0.1
2017-Aug-18 08:00N 61°59' E 005°08'1 1.4
2017-Aug-18 07:30N 61°58' E 005°09'2 4.0
2017-Aug-18 06:59N 61°56' E 005°07'0 0.1
2017-Aug-18 06:30N 61°56' E 005°07'510.5
2017-Aug-18 06:00N 61°52' E 005°14'611.7
2017-Aug-18 05:30N 61°48' E 005°07'714.5
2017-Aug-18 05:00N 61°42' E 004°58'714.7
2017-Aug-18 04:30N 61°35' E 004°58'713.7
2017-Aug-18 04:00N 61°28' E 004°57'815.5
2017-Aug-18 03:30N 61°21' E 004°48'612.8
2017-Aug-18 03:00N 61°16' E 004°40'2 3.2
2017-Aug-18 02:30N 61°17' E 004°38'0 0.0
2017-Aug-18 02:00N 61°17' E 004°38'2 4.7
2017-Aug-18 01:30N 61°15' E 004°39'815.0
2017-Aug-18 01:00N 61°08' E 004°45'714.9
2017-Aug-18 00:30N 61°00' E 004°46'815.0
2017-Aug-18 00:00N 60°53' E 004°47'715.3
2017-Aug-17 23:30N 60°50' E 005°01'3 5.5
2017-Aug-17 23:00N 60°48' E 005°04'2 4.6
2017-Aug-17 22:30N 60°50' E 005°02'714.6
2017-Aug-17 21:59N 60°51' E 004°47'713.9
2017-Aug-17 21:30N 60°44' E 004°49'815.8
2017-Aug-17 21:00N 60°36' E 004°54'815.8
2017-Aug-17 20:30N 60°29' E 004°60'714.9
2017-Aug-17 20:00N 60°23' E 005°10'714.0
2017-Aug-17 19:30N 60°16' E 005°10'1219.1
2017-Aug-17 18:51N 60°05' E 005°20'3 8.0
2017-Aug-17 18:30N 60°02' E 005°20'815.6
2017-Aug-17 18:00N 59°56' E 005°29'815.3
2017-Aug-17 17:30N 59°48' E 005°33'714.9
2017-Aug-17 17:00N 59°42' E 005°26'816.2
2017-Aug-17 16:30N 59°35' E 005°16'815.4
2017-Aug-17 16:00N 59°28' E 005°13'714.1
2017-Aug-17 15:30N 59°21' E 005°19'611.7
2017-Aug-17 15:01N 59°16' E 005°20'815.7
2017-Aug-17 14:31N 59°08' E 005°21'815.4
2017-Aug-17 14:00N 59°01' E 005°14'816.1
2017-Aug-17 13:31N 58°54' E 005°07'815.5
2017-Aug-17 13:00N 58°47' E 004°60'815.4
2017-Aug-17 12:31N 58°40' E 004°53'27415.2
2017-Aug-16 18:30N 54°35' E 001°12'75 2.3
2017-Aug-15 09:56N 53°35' W 000°04'40 7.6
2017-Aug-15 04:44N 53°21' E 000°58'312.8
2017-Aug-15 04:29N 53°20' E 001°03'612.6
2017-Aug-15 03:59N 53°17' E 001°12'612.1
2017-Aug-15 03:30N 53°13' E 001°20'713.6
2017-Aug-15 03:00N 53°11' E 001°31'713.1
2017-Aug-15 02:30N 53°09' E 001°41'612.6
2017-Aug-15 02:00N 53°07' E 001°51'612.2
2017-Aug-15 01:30N 53°04' E 001°60'612.0
2017-Aug-15 01:00N 52°60' E 002°08'612.3
2017-Aug-15 00:30N 52°57' E 002°17'612.8
2017-Aug-15 00:00N 52°54' E 002°26'1613.2
2017-Aug-14 22:46N 52°49' E 002°52'414.1
2017-Aug-14 22:30N 52°47' E 002°58'714.2
2017-Aug-14 21:59N 52°45' E 003°09'714.4
2017-Aug-14 21:30N 52°42' E 003°20'814.6
2017-Aug-14 20:59N 52°39' E 003°31'2014.4
2017-Aug-14 19:36N 52°32' E 004°02'214.2
2017-Aug-14 19:29N 52°32' E 004°04'714.1
2017-Aug-14 19:00N 52°31' E 004°16'714.4
2017-Aug-14 18:30N 52°29' E 004°27'510.9
2017-Aug-14 18:00N 52°28' E 004°36'1 1.4
2017-Aug-14 17:30N 52°28' E 004°37'2 3.8
2017-Aug-14 17:00N 52°28' E 004°40'0 0.0
2017-Aug-14 16:30N 52°28' E 004°40'0 0.0
2017-Aug-14 15:58N 52°28' E 004°40'0 0.0
2017-Aug-14 15:28N 52°28' E 004°40'0 0.0
2017-Aug-14 14:58N 52°28' E 004°40'0 0.0
2017-Aug-14 14:28N 52°28' E 004°40'0 0.0
2017-Aug-14 13:58N 52°28' E 004°40'0 0.0
2017-Aug-14 13:28N 52°28' E 004°40'0 0.0
2017-Aug-14 12:58N 52°28' E 004°40'0 0.0
2017-Aug-14 12:28N 52°28' E 004°40'0 0.0
2017-Aug-14 11:52N 52°28' E 004°40'0 0.0
2017-Aug-14 11:28N 52°28' E 004°40'0 0.0
2017-Aug-14 10:58N 52°28' E 004°40'0 0.0
2017-Aug-14 10:28N 52°28' E 004°40'0 0.0
2017-Aug-14 09:58N 52°28' E 004°40'0 0.0
2017-Aug-14 09:28N 52°28' E 004°40'0 0.0
2017-Aug-14 08:58N 52°28' E 004°40'0 0.0
2017-Aug-14 08:28N 52°28' E 004°40'0 0.0
2017-Aug-14 07:58N 52°28' E 004°40'0 0.0
2017-Aug-14 07:28N 52°28' E 004°40'0 0.0
2017-Aug-14 07:01N 52°28' E 004°40'0 0.0
2017-Aug-14 06:31N 52°28' E 004°40'0 0.0
2017-Aug-14 05:58N 52°28' E 004°40'0 0.0
2017-Aug-14 05:30N 52°28' E 004°40'0 0.0
2017-Aug-14 05:00N 52°28' E 004°40'0 0.0
2017-Aug-14 04:30N 52°28' E 004°40'0 0.0
2017-Aug-14 04:00N 52°28' E 004°40'0 0.0
2017-Aug-14 03:30N 52°28' E 004°40'0 0.0
2017-Aug-14 02:57N 52°28' E 004°40'0 0.0
2017-Aug-14 02:30N 52°28' E 004°40'0 0.0
2017-Aug-14 02:00N 52°28' E 004°40'0 0.0
2017-Aug-14 01:30N 52°28' E 004°40'0 0.0
2017-Aug-14 01:00N 52°28' E 004°40'0 0.0
2017-Aug-14 00:27N 52°28' E 004°40'0 0.0
2017-Aug-14 00:00N 52°28' E 004°40'0 0.0
2017-Aug-13 23:30N 52°28' E 004°40'0 0.0
2017-Aug-13 22:57N 52°28' E 004°40'0 0.0
2017-Aug-13 22:27N 52°28' E 004°40'0 0.0
2017-Aug-13 21:57N 52°28' E 004°40'0 0.0
2017-Aug-13 21:30N 52°28' E 004°40'0 0.0
2017-Aug-13 21:00N 52°28' E 004°40'0 0.0
2017-Aug-13 20:30N 52°28' E 004°40'0 0.0
2017-Aug-13 20:00N 52°28' E 004°40'  
Track history (hours):
 
Tides and Currents Weather Stations Pressure Air Temp Water Temp Dewpoint Dewpoint Depression Visibility Wind Speed Wind Dir Waves Ship Positions

Svartfoss

Last reported at 2017-Aug-23 19:30 UTC. Time now 2017-Aug-23 19:35 UTC.
Position N 68°58' E 033°03'.

Length 80 m; draft 5.3 m.

Type: Cargo ship. MMSI: 304882000.

Date/timePositionNaut miles runAvg speedWind from/ knotsBaromVisibWave heightAir tempDewpointWater temp
2017-Aug-23 19:30N 68°58' E 033°03'0 0.0
2017-Aug-23 18:59N 68°58' E 033°03'0 0.0
2017-Aug-23 18:29N 68°58' E 033°03'0 0.0
2017-Aug-23 17:58N 68°58' E 033°03'0 0.0
2017-Aug-23 17:28N 68°58' E 033°03'0 0.0
2017-Aug-23 16:58N 68°58' E 033°03'0 0.0
2017-Aug-23 16:28N 68°58' E 033°03'0 0.0
2017-Aug-23 15:58N 68°58' E 033°03'0 0.0
2017-Aug-23 15:28N 68°58' E 033°03'0 0.0
2017-Aug-23 10:46N 68°58' E 033°03'0 0.0
2017-Aug-23 10:24N 68°58' E 033°03'1 2.0
2017-Aug-23 10:00N 68°59' E 033°02'3 6.3
2017-Aug-23 09:30N 69°02' E 033°03'8011.5
2017-Aug-23 02:35N 70°18' E 031°53'115.5
2017-Aug-23 02:30N 70°19' E 031°50'815.5
2017-Aug-23 02:00N 70°23' E 031°31'815.7
2017-Aug-23 01:30N 70°28' E 031°12'816.0
2017-Aug-23 01:00N 70°33' E 030°53'815.5
2017-Aug-23 00:30N 70°37' E 030°34'815.5
2017-Aug-23 00:00N 70°42' E 030°15'713.9
2017-Aug-22 23:30N 70°42' E 029°54'611.5
2017-Aug-22 23:01N 70°38' E 029°43'0 0.0
2017-Aug-22 22:30N 70°38' E 029°43'0 0.0
2017-Aug-22 22:00N 70°38' E 029°43'0 0.0
2017-Aug-22 21:30N 70°38' E 029°43'0 0.0
2017-Aug-22 21:00N 70°38' E 029°43'0 0.0
2017-Aug-22 20:31N 70°38' E 029°43'0 0.0
2017-Aug-22 20:00N 70°38' E 029°43'0 0.0
2017-Aug-22 19:30N 70°38' E 029°43'0 0.3
2017-Aug-22 19:00N 70°38' E 029°44'712.8
2017-Aug-22 18:30N 70°44' E 029°50'815.6
2017-Aug-22 18:00N 70°49' E 029°32'816.0
2017-Aug-22 17:30N 70°54' E 029°12'815.6
2017-Aug-22 17:00N 70°58' E 028°53'815.8
2017-Aug-22 16:30N 71°03' E 028°33'816.6
2017-Aug-22 16:00N 71°08' E 028°12'816.5
2017-Aug-22 15:30N 71°08' E 027°47'816.8
2017-Aug-22 15:00N 71°07' E 027°21'816.0
2017-Aug-22 14:30N 71°04' E 026°58'815.4
2017-Aug-22 14:00N 71°01' E 026°36'815.4
2017-Aug-22 13:30N 70°59' E 026°13'510.1
2017-Aug-22 13:00N 70°60' E 025°58'0 0.1
2017-Aug-22 12:29N 70°60' E 025°58'2 3.9
2017-Aug-22 12:00N 70°58' E 025°56'714.7
2017-Aug-22 11:30N 70°56' E 025°34'816.1
2017-Aug-22 11:00N 70°59' E 025°12'815.3
2017-Aug-22 10:30N 71°00' E 024°49'714.0
2017-Aug-22 10:00N 71°00' E 024°27'714.9
2017-Aug-22 09:30N 70°55' E 024°11'714.9
2017-Aug-22 09:00N 70°50' E 023°54'714.5
2017-Aug-22 08:30N 70°45' E 023°38'613.4
2017-Aug-22 08:01N 70°38' E 023°34'2 3.3
2017-Aug-22 07:30N 70°38' E 023°38'0 0.0
2017-Aug-22 07:01N 70°38' E 023°38'0 0.0
2017-Aug-22 06:30N 70°38' E 023°38'0 0.0
2017-Aug-22 06:00N 70°38' E 023°38'1 1.6
2017-Aug-22 05:30N 70°37' E 023°37'2 3.0
2017-Aug-22 05:00N 70°38' E 023°40'0 0.0
2017-Aug-22 04:30N 70°38' E 023°40'0 0.0
2017-Aug-22 04:00N 70°38' E 023°40'4 7.5
2017-Aug-22 03:30N 70°38' E 023°29'714.5
2017-Aug-22 03:00N 70°34' E 023°10'815.5
2017-Aug-22 02:30N 70°29' E 022°52'815.0
2017-Aug-22 02:00N 70°25' E 022°34'714.6
2017-Aug-22 01:30N 70°20' E 022°18'611.1
2017-Aug-22 01:00N 70°14' E 022°21'3 6.8
2017-Aug-22 00:30N 70°17' E 022°17'815.2
2017-Aug-22 00:00N 70°22' E 021°58'713.3
2017-Aug-21 23:30N 70°23' E 021°38'815.6
2017-Aug-21 23:01N 70°17' E 021°22'714.8
2017-Aug-21 22:31N 70°12' E 021°07'714.7
2017-Aug-21 22:01N 70°05' E 020°57'714.2
2017-Aug-21 21:31N 70°02' E 020°40'714.9
2017-Aug-21 21:00N 69°59' E 020°19'714.9
2017-Aug-21 20:30N 69°55' E 020°01'815.3
2017-Aug-21 20:00N 69°50' E 019°43'815.0
2017-Aug-21 19:30N 69°48' E 019°23'714.9
2017-Aug-21 19:01N 69°45' E 019°04'610.9
2017-Aug-21 18:30N 69°39' E 018°58'0 0.0
2017-Aug-21 18:00N 69°39' E 018°58'0 0.0
2017-Aug-21 17:30N 69°39' E 018°58'0 0.0
2017-Aug-21 17:00N 69°39' E 018°58'0 0.0
2017-Aug-21 16:30N 69°39' E 018°58'0 0.7
2017-Aug-21 16:00N 69°39' E 018°59'2 3.6
2017-Aug-21 15:30N 69°38' E 018°57'4 8.6
2017-Aug-21 15:00N 69°34' E 018°48'713.2
2017-Aug-21 14:30N 69°32' E 018°31'714.8
2017-Aug-21 14:01N 69°29' E 018°12'713.8
2017-Aug-21 13:30N 69°22' E 018°06'713.9
2017-Aug-21 13:00N 69°16' E 017°58'612.1
2017-Aug-21 12:30N 69°10' E 017°56'714.7
2017-Aug-21 12:00N 69°07' E 017°37'714.4
2017-Aug-21 11:30N 69°03' E 017°20'714.0
2017-Aug-21 11:00N 68°58' E 017°05'714.5
2017-Aug-21 10:30N 68°55' E 016°47'713.4
2017-Aug-21 09:59N 68°52' E 016°29'714.5
2017-Aug-21 09:30N 68°57' E 016°14'714.8
2017-Aug-21 09:01N 68°59' E 015°55'611.9
2017-Aug-21 08:30N 68°58' E 015°38'4 8.2
2017-Aug-21 07:59N 68°54' E 015°34'714.8
2017-Aug-21 07:30N 68°47' E 015°26'510.7
2017-Aug-21 07:00N 68°42' E 015°25'0 0.0
2017-Aug-21 06:30N 68°42' E 015°25'0 0.0
2017-Aug-21 06:00N 68°42' E 015°25'0 0.3
2017-Aug-21 05:30N 68°42' E 015°25'713.1
2017-Aug-21 05:00N 68°36' E 015°16'713.4
2017-Aug-21 04:30N 68°30' E 015°11'612.1
2017-Aug-21 04:00N 68°24' E 015°06'714.1
2017-Aug-21 03:30N 68°18' E 014°58'714.8
2017-Aug-21 03:00N 68°11' E 014°52'715.0
2017-Aug-21 02:30N 68°04' E 014°43'714.9
2017-Aug-21 02:00N 67°57' E 014°35'714.6
2017-Aug-21 01:30N 67°51' E 014°26'714.2
2017-Aug-21 01:00N 67°44' E 014°19'714.0
2017-Aug-21 00:30N 67°37' E 014°18'714.6
2017-Aug-21 00:00N 67°30' E 014°22'713.8
2017-Aug-20 23:30N 67°23' E 014°26'714.4
2017-Aug-20 23:00N 67°17' E 014°16'714.6
2017-Aug-20 22:30N 67°11' E 014°05'714.7
2017-Aug-20 22:00N 67°05' E 013°56'814.7
2017-Aug-20 21:30N 67°00' E 013°40'612.8
2017-Aug-20 21:00N 66°56' E 013°29'713.9
2017-Aug-20 20:29N 66°50' E 013°17'714.4
2017-Aug-20 20:00N 66°44' E 013°12'714.4
2017-Aug-20 19:30N 66°37' E 013°05'612.5
2017-Aug-20 19:00N 66°32' E 012°58'714.5
2017-Aug-20 18:30N 66°24' E 012°58'714.3
2017-Aug-20 18:00N 66°17' E 012°56'714.5
2017-Aug-20 17:30N 66°10' E 012°50'714.5
2017-Aug-20 17:00N 66°04' E 012°40'714.9
2017-Aug-20 16:30N 65°59' E 012°29'714.0
2017-Aug-20 16:00N 65°52' E 012°23'714.0
2017-Aug-20 15:30N 65°45' E 012°18'814.6
2017-Aug-20 14:56N 65°37' E 012°12'715.0
2017-Aug-20 14:30N 65°32' E 012°03'714.2
2017-Aug-20 13:59N 65°25' E 011°57'612.2
2017-Aug-20 13:30N 65°20' E 012°01'714.6
2017-Aug-20 13:00N 65°13' E 011°54'714.8
2017-Aug-20 12:30N 65°06' E 011°48'714.6
2017-Aug-20 12:00N 65°00' E 011°38'715.0
2017-Aug-20 11:30N 64°55' E 011°24'611.3
2017-Aug-20 11:00N 64°51' E 011°14'0 0.3
2017-Aug-20 10:31N 64°52' E 011°14'0 0.0
2017-Aug-20 10:01N 64°52' E 011°14'0 0.0
2017-Aug-20 09:31N 64°52' E 011°14'0 0.0
2017-Aug-20 09:00N 64°52' E 011°14'0 0.0
2017-Aug-20 08:31N 64°52' E 011°14'0 0.0
2017-Aug-20 08:01N 64°52' E 011°14'0 0.0
2017-Aug-20 07:31N 64°52' E 011°14'0 0.0
2017-Aug-20 07:01N 64°52' E 011°14'0 0.0
2017-Aug-20 06:31N 64°52' E 011°14'0 0.0
2017-Aug-20 06:01N 64°52' E 011°14'0 0.0
2017-Aug-20 05:31N 64°52' E 011°14'0 0.0
2017-Aug-20 05:01N 64°52' E 011°14'0 0.0
2017-Aug-20 04:31N 64°52' E 011°14'0 0.0
2017-Aug-20 04:00N 64°52' E 011°14'0 0.0
2017-Aug-20 03:30N 64°52' E 011°14'0 0.0
2017-Aug-20 03:00N 64°52' E 011°14'0 0.0
2017-Aug-20 02:31N 64°52' E 011°14'0 0.0
2017-Aug-20 02:00N 64°52' E 011°14'0 0.0
2017-Aug-20 01:31N 64°52' E 011°14'0 0.0
2017-Aug-20 01:01N 64°52' E 011°14'0 0.0
2017-Aug-20 00:31N 64°52' E 011°14'0 0.0
2017-Aug-20 00:01N 64°52' E 011°14'0 0.0
2017-Aug-19 23:30N 64°52' E 011°14'0 0.0
2017-Aug-19 23:01N 64°52' E 011°14'0 0.0
2017-Aug-19 22:30N 64°52' E 011°14'0 0.0
2017-Aug-19 22:00N 64°52' E 011°14'0 0.0
2017-Aug-19 21:31N 64°52' E 011°14'0 0.0
2017-Aug-19 21:01N 64°52' E 011°14'0 0.0
2017-Aug-19 20:31N 64°52' E 011°14'611.1
2017-Aug-19 20:00N 64°48' E 011°06'815.0
2017-Aug-19 19:30N 64°42' E 010°53'815.1
2017-Aug-19 19:00N 64°36' E 010°41'815.5
2017-Aug-19 18:30N 64°30' E 010°30'714.8
2017-Aug-19 18:00N 64°23' E 010°25'714.7
2017-Aug-19 17:30N 64°16' E 010°20'714.4
2017-Aug-19 17:00N 64°11' E 010°09'814.9
2017-Aug-19 16:30N 64°05' E 009°57'714.1
2017-Aug-19 16:00N 63°60' E 009°47'714.2
2017-Aug-19 15:29N 63°53' E 009°44'5 9.9
2017-Aug-19 15:00N 63°49' E 009°38'0 0.3
2017-Aug-19 14:00N 63°49' E 009°38'0 0.0
2017-Aug-19 13:30N 63°49' E 009°38'0 0.0
2017-Aug-19 13:01N 63°49' E 009°38'1 2.1
2017-Aug-19 12:30N 63°48' E 009°36'714.8
2017-Aug-19 12:00N 63°42' E 009°30'815.1
2017-Aug-19 11:30N 63°35' E 009°24'815.9
2017-Aug-19 11:00N 63°31' E 009°08'815.4
2017-Aug-19 10:30N 63°27' E 008°52'815.6
2017-Aug-19 10:00N 63°25' E 008°36'815.4
2017-Aug-19 09:30N 63°21' E 008°21'816.0
2017-Aug-19 09:00N 63°16' E 008°07'815.7
2017-Aug-19 08:31N 63°12' E 007°52'714.7
2017-Aug-19 08:00N 63°07' E 007°40'3 5.5
2017-Aug-19 07:30N 63°06' E 007°46'0 0.0
2017-Aug-19 07:00N 63°06' E 007°46'0 0.0
2017-Aug-19 06:30N 63°06' E 007°46'0 0.0
2017-Aug-19 06:00N 63°06' E 007°46'3 5.3
2017-Aug-19 05:30N 63°07' E 007°41'613.0
2017-Aug-19 05:00N 63°05' E 007°27'713.8
2017-Aug-19 04:30N 63°02' E 007°13'713.7
2017-Aug-19 04:00N 62°60' E 006°59'713.3
2017-Aug-19 03:30N 62°55' E 006°48'713.6
2017-Aug-19 03:00N 62°50' E 006°39'713.5
2017-Aug-19 02:30N 62°44' E 006°31'713.6
2017-Aug-19 02:00N 62°38' E 006°23'713.4
2017-Aug-19 01:30N 62°34' E 006°12'510.0
2017-Aug-19 01:00N 62°29' E 006°12'0 0.4
2017-Aug-19 00:30N 62°29' E 006°12'0 0.0
2017-Aug-19 00:00N 62°29' E 006°12'0 0.0
2017-Aug-18 23:30N 62°29' E 006°12'0 0.0
2017-Aug-18 23:00N 62°29' E 006°12'0 0.0
2017-Aug-18 22:30N 62°29' E 006°12'0 0.0
2017-Aug-18 22:00N 62°29' E 006°12'0 0.0
2017-Aug-18 21:30N 62°29' E 006°12'0 0.0
2017-Aug-18 21:00N 62°29' E 006°12'0 0.0
2017-Aug-18 20:30N 62°29' E 006°12'0 0.0
2017-Aug-18 20:00N 62°29' E 006°12'0 0.0
2017-Aug-18 19:29N 62°29' E 006°12'0 0.0
2017-Aug-18 19:00N 62°29' E 006°12'0 0.0
2017-Aug-18 18:30N 62°29' E 006°12'0 0.0
2017-Aug-18 18:00N 62°29' E 006°12'0 0.0
2017-Aug-18 17:30N 62°29' E 006°12'0 0.0
2017-Aug-18 17:00N 62°29' E 006°12'0 0.0
2017-Aug-18 16:30N 62°29' E 006°12'0 0.0
2017-Aug-18 16:00N 62°29' E 006°12'0 0.2
2017-Aug-18 15:30N 62°29' E 006°11'3 6.9
2017-Aug-18 15:00N 62°27' E 006°05'2 3.9
2017-Aug-18 14:30N 62°28' E 006°08'0 0.0
2017-Aug-18 13:30N 62°28' E 006°08'0 0.0
2017-Aug-18 13:00N 62°28' E 006°08'0 0.0
2017-Aug-18 12:29N 62°28' E 006°08'0 0.8
2017-Aug-18 11:59N 62°28' E 006°09'511.4
2017-Aug-18 11:30N 62°26' E 005°58'714.1
2017-Aug-18 11:00N 62°22' E 005°46'612.5
2017-Aug-18 10:30N 62°19' E 005°34'714.9
2017-Aug-18 10:00N 62°16' E 005°19'715.0
2017-Aug-18 09:30N 62°12' E 005°06'714.3
2017-Aug-18 09:00N 62°05' E 005°07'612.0
2017-Aug-18 08:30N 61°59' E 005°08'0 0.1
2017-Aug-18 08:00N 61°59' E 005°08'1 1.4
2017-Aug-18 07:30N 61°58' E 005°09'2 4.0
2017-Aug-18 06:59N 61°56' E 005°07'0 0.1
2017-Aug-18 06:30N 61°56' E 005°07'510.5
2017-Aug-18 06:00N 61°52' E 005°14'611.7
2017-Aug-18 05:30N 61°48' E 005°07'714.5
2017-Aug-18 05:00N 61°42' E 004°58'714.7
2017-Aug-18 04:30N 61°35' E 004°58'713.7
2017-Aug-18 04:00N 61°28' E 004°57'815.5
2017-Aug-18 03:30N 61°21' E 004°48'612.8
2017-Aug-18 03:00N 61°16' E 004°40'2 3.2
2017-Aug-18 02:30N 61°17' E 004°38'0 0.0
2017-Aug-18 02:00N 61°17' E 004°38'2 4.7
2017-Aug-18 01:30N 61°15' E 004°39'815.0
2017-Aug-18 01:00N 61°08' E 004°45'714.9
2017-Aug-18 00:30N 61°00' E 004°46'815.0
2017-Aug-18 00:00N 60°53' E 004°47'715.3
2017-Aug-17 23:30N 60°50' E 005°01'3 5.5
2017-Aug-17 23:00N 60°48' E 005°04'2 4.6
2017-Aug-17 22:30N 60°50' E 005°02'714.6
2017-Aug-17 21:59N 60°51' E 004°47'713.9
2017-Aug-17 21:30N 60°44' E 004°49'815.8
2017-Aug-17 21:00N 60°36' E 004°54'815.8
2017-Aug-17 20:30N 60°29' E 004°60'714.9
2017-Aug-17 20:00N 60°23' E 005°10'714.0
2017-Aug-17 19:30N 60°16' E 005°10'1219.1
2017-Aug-17 18:51N 60°05' E 005°20'3 8.0
2017-Aug-17 18:30N 60°02' E 005°20'815.6
2017-Aug-17 18:00N 59°56' E 005°29'815.3
2017-Aug-17 17:30N 59°48' E 005°33'714.9
2017-Aug-17 17:00N 59°42' E 005°26'816.2
2017-Aug-17 16:30N 59°35' E 005°16'815.4
2017-Aug-17 16:00N 59°28' E 005°13'714.1
2017-Aug-17 15:30N 59°21' E 005°19'611.7
2017-Aug-17 15:01N 59°16' E 005°20'815.7
2017-Aug-17 14:31N 59°08' E 005°21'815.4
2017-Aug-17 14:00N 59°01' E 005°14'816.1
2017-Aug-17 13:31N 58°54' E 005°07'815.5
2017-Aug-17 13:00N 58°47' E 004°60'815.4
2017-Aug-17 12:31N 58°40' E 004°53'27415.2
2017-Aug-16 18:30N 54°35' E 001°12'75 2.3
2017-Aug-15 09:56N 53°35' W 000°04'40 7.6
2017-Aug-15 04:44N 53°21' E 000°58'312.8
2017-Aug-15 04:29N 53°20' E 001°03'612.6
2017-Aug-15 03:59N 53°17' E 001°12'612.1
2017-Aug-15 03:30N 53°13' E 001°20'713.6
2017-Aug-15 03:00N 53°11' E 001°31'713.1
2017-Aug-15 02:30N 53°09' E 001°41'612.6
2017-Aug-15 02:00N 53°07' E 001°51'612.2
2017-Aug-15 01:30N 53°04' E 001°60'612.0
2017-Aug-15 01:00N 52°60' E 002°08'612.3
2017-Aug-15 00:30N 52°57' E 002°17'612.8
2017-Aug-15 00:00N 52°54' E 002°26'1613.2
2017-Aug-14 22:46N 52°49' E 002°52'414.1
2017-Aug-14 22:30N 52°47' E 002°58'714.2
2017-Aug-14 21:59N 52°45' E 003°09'714.4
2017-Aug-14 21:30N 52°42' E 003°20'814.6
2017-Aug-14 20:59N 52°39' E 003°31'2014.4
2017-Aug-14 19:36N 52°32' E 004°02'214.2
2017-Aug-14 19:29N 52°32' E 004°04'714.1
2017-Aug-14 19:00N 52°31' E 004°16'714.4
2017-Aug-14 18:30N 52°29' E 004°27'510.9
2017-Aug-14 18:00N 52°28' E 004°36'1 1.4
2017-Aug-14 17:30N 52°28' E 004°37'2 3.8
2017-Aug-14 17:00N 52°28' E 004°40'0 0.0
2017-Aug-14 16:30N 52°28' E 004°40'0 0.0
2017-Aug-14 15:58N 52°28' E 004°40'0 0.0
2017-Aug-14 15:28N 52°28' E 004°40'0 0.0
2017-Aug-14 14:58N 52°28' E 004°40'0 0.0
2017-Aug-14 14:28N 52°28' E 004°40'0 0.0
2017-Aug-14 13:58N 52°28' E 004°40'0 0.0
2017-Aug-14 13:28N 52°28' E 004°40'0 0.0
2017-Aug-14 12:58N 52°28' E 004°40'0 0.0
2017-Aug-14 12:28N 52°28' E 004°40'0 0.0
2017-Aug-14 11:52N 52°28' E 004°40'0 0.0
2017-Aug-14 11:28N 52°28' E 004°40'0 0.0
2017-Aug-14 10:58N 52°28' E 004°40'0 0.0
2017-Aug-14 10:28N 52°28' E 004°40'0 0.0
2017-Aug-14 09:58N 52°28' E 004°40'0 0.0
2017-Aug-14 09:28N 52°28' E 004°40'0 0.0
2017-Aug-14 08:58N 52°28' E 004°40'0 0.0
2017-Aug-14 08:28N 52°28' E 004°40'0 0.0
2017-Aug-14 07:58N 52°28' E 004°40'0 0.0
2017-Aug-14 07:28N 52°28' E 004°40'0 0.0
2017-Aug-14 07:01N 52°28' E 004°40'0 0.0
2017-Aug-14 06:31N 52°28' E 004°40'0 0.0
2017-Aug-14 05:58N 52°28' E 004°40'0 0.0
2017-Aug-14 05:30N 52°28' E 004°40'0 0.0
2017-Aug-14 05:00N 52°28' E 004°40'0 0.0
2017-Aug-14 04:30N 52°28' E 004°40'0 0.0
2017-Aug-14 04:00N 52°28' E 004°40'0 0.0
2017-Aug-14 03:30N 52°28' E 004°40'0 0.0
2017-Aug-14 02:57N 52°28' E 004°40'0 0.0
2017-Aug-14 02:30N 52°28' E 004°40'0 0.0
2017-Aug-14 02:00N 52°28' E 004°40'0 0.0
2017-Aug-14 01:30N 52°28' E 004°40'0 0.0
2017-Aug-14 01:00N 52°28' E 004°40'0 0.0
2017-Aug-14 00:27N 52°28' E 004°40'0 0.0
2017-Aug-14 00:00N 52°28' E 004°40'0 0.0
2017-Aug-13 23:30N 52°28' E 004°40'0 0.0
2017-Aug-13 22:57N 52°28' E 004°40'0 0.0
2017-Aug-13 22:27N 52°28' E 004°40'0 0.0
2017-Aug-13 21:57N 52°28' E 004°40'0 0.0
2017-Aug-13 21:30N 52°28' E 004°40'0 0.0
2017-Aug-13 21:00N 52°28' E 004°40'0 0.0
2017-Aug-13 20:30N 52°28' E 004°40'0 0.0
2017-Aug-13 20:00N 52°28' E 004°40'  

Dump ship's entire track history